createdAt,value
2022-12-13T00:01:30.183Z,21.97
2022-12-13T00:03:59.771Z,22.10
2022-12-13T00:06:28.198Z,21.43
2022-12-13T00:08:55.266Z,23.07
2022-12-13T00:11:22.583Z,23.77
2022-12-13T00:13:50.195Z,22.27
2022-12-13T00:16:22.709Z,22.40
2022-12-13T00:18:55.284Z,22.53
2022-12-13T00:21:25.031Z,22.27
2022-12-13T00:23:52.613Z,22.63
2022-12-13T00:26:22.975Z,22.43
2022-12-13T00:28:51.251Z,20.53
2022-12-13T00:31:53.526Z,21.50
2022-12-13T00:34:08.858Z,21.43
2022-12-13T00:36:35.938Z,21.67
2022-12-13T00:39:03.224Z,21.27
2022-12-13T00:41:33.186Z,21.33
2022-12-13T00:44:01.246Z,22.03
2022-12-13T00:46:28.994Z,22.77
2022-12-13T00:48:58.761Z,20.13
2022-12-13T00:51:29.280Z,21.83
2022-12-13T00:53:56.536Z,21.87
2022-12-13T00:56:26.732Z,22.53
2022-12-13T00:58:56.109Z,22.03
2022-12-13T01:01:26.507Z,21.57
2022-12-13T01:03:55.359Z,20.77
2022-12-13T01:06:29.884Z,21.07
2022-12-13T01:08:57.045Z,20.77
2022-12-13T01:11:24.571Z,20.33
2022-12-13T01:13:51.688Z,21.10
2022-12-13T01:16:18.947Z,22.10
2022-12-13T01:18:46.073Z,21.50
2022-12-13T01:21:16.610Z,21.73
2022-12-13T01:23:45.594Z,20.47
2022-12-13T01:26:20.190Z,21.10
2022-12-13T01:28:48.397Z,20.37
2022-12-13T01:31:19.232Z,21.73
2022-12-13T01:33:46.874Z,20.80
2022-12-13T01:36:18.219Z,21.63
2022-12-13T01:38:46.858Z,22.50
2022-12-13T01:41:17.445Z,21.60
2022-12-13T01:44:00.743Z,20.23
2022-12-13T01:46:27.906Z,21.40
2022-12-13T01:49:04.128Z,21.10
2022-12-13T01:51:37.331Z,21.00
2022-12-13T01:54:10.274Z,21.17
2022-12-13T01:56:41.531Z,21.57
2022-12-13T01:59:11.336Z,21.87
2022-12-13T02:01:40.013Z,20.50
2022-12-13T02:04:08.215Z,19.07
2022-12-13T02:06:40.125Z,20.87
2022-12-13T02:09:10.153Z,21.17
2022-12-13T02:11:41.622Z,20.37
2022-12-13T02:14:09.743Z,20.07
2022-12-13T02:16:54.871Z,20.20
2022-12-13T02:20:00.975Z,20.47
2022-12-13T02:22:57.585Z,18.73
2022-12-13T02:26:06.662Z,20.43
2022-12-13T02:29:01.477Z,20.10
2022-12-13T02:31:41.686Z,20.67
2022-12-13T02:34:18.271Z,20.77
2022-12-13T02:36:57.174Z,20.77
2022-12-13T02:39:31.339Z,20.57
2022-12-13T02:42:05.943Z,21.93
2022-12-13T02:44:40.841Z,20.87
2022-12-13T02:47:22.208Z,19.33
2022-12-13T02:49:56.010Z,21.50
2022-12-13T02:52:29.432Z,21.27
2022-12-13T02:54:58.056Z,20.50
2022-12-13T02:57:34.290Z,20.60
2022-12-13T03:00:08.829Z,21.73
2022-12-13T03:02:54.187Z,20.87
2022-12-13T03:05:54.944Z,20.77
2022-12-13T03:08:31.434Z,20.70
2022-12-13T03:11:07.981Z,20.47
2022-12-13T03:13:49.059Z,21.03
2022-12-13T03:16:27.331Z,20.77
2022-12-13T03:19:00.740Z,20.17
2022-12-13T03:21:28.644Z,20.13
2022-12-13T03:23:55.708Z,19.60
2022-12-13T03:26:26.913Z,21.50
2022-12-13T03:28:54.252Z,21.37
2022-12-13T03:31:21.950Z,21.93
2022-12-13T03:33:51.176Z,21.53
2022-12-13T03:36:19.971Z,20.80
2022-12-13T03:38:52.312Z,22.03
2022-12-13T03:41:23.948Z,20.10
2022-12-13T03:43:51.089Z,21.27
2022-12-13T03:46:18.113Z,19.87
2022-12-13T03:48:45.148Z,20.70
2022-12-13T03:51:12.155Z,19.43
2022-12-13T03:53:40.488Z,18.37
2022-12-13T03:56:08.111Z,20.33
2022-12-13T03:58:37.940Z,20.07
2022-12-13T04:01:11.284Z,20.77
2022-12-13T04:03:40.306Z,20.50
2022-12-13T04:06:08.420Z,21.27
2022-12-13T04:08:37.508Z,20.20
2022-12-13T04:11:25.477Z,19.30
2022-12-13T04:13:53.857Z,20.20
2022-12-13T04:16:21.482Z,19.37
2022-12-13T04:18:48.883Z,20.53
2022-12-13T04:21:16.255Z,19.67
2022-12-13T04:23:43.287Z,20.40
2022-12-13T04:26:11.806Z,20.20
2022-12-13T04:28:39.009Z,19.83
2022-12-13T04:31:06.344Z,19.23
2022-12-13T04:33:33.724Z,19.33
2022-12-13T04:36:00.866Z,18.97
2022-12-13T04:38:27.900Z,20.43
2022-12-13T04:41:06.421Z,21.43
2022-12-13T04:43:34.716Z,20.17
2022-12-13T04:46:01.848Z,20.67
2022-12-13T04:48:31.373Z,19.63
2022-12-13T04:51:01.159Z,21.97
2022-12-13T04:53:28.944Z,19.03
2022-12-13T04:55:56.228Z,20.07
2022-12-13T04:58:23.378Z,19.47
2022-12-13T05:00:51.732Z,19.30
2022-12-13T05:03:18.765Z,19.53
2022-12-13T05:05:45.719Z,19.10
2022-12-13T05:08:13.254Z,20.30
2022-12-13T05:10:40.459Z,18.87
2022-12-13T05:13:07.737Z,19.97
2022-12-13T05:15:35.475Z,19.40
2022-12-13T05:18:09.485Z,20.70
2022-12-13T05:20:39.192Z,18.93
2022-12-13T05:23:06.387Z,19.37
2022-12-13T05:25:36.609Z,19.00
2022-12-13T05:28:08.810Z,19.87
2022-12-13T05:30:51.132Z,20.70
2022-12-13T05:33:19.447Z,18.20
2022-12-13T05:35:46.651Z,19.37
2022-12-13T05:38:13.987Z,19.10
2022-12-13T05:40:41.168Z,20.20
2022-12-13T05:43:22.351Z,20.83
2022-12-13T05:45:49.923Z,20.17
2022-12-13T05:48:24.696Z,21.80
2022-12-13T05:51:10.584Z,20.33
2022-12-13T05:53:40.155Z,18.30
2022-12-13T05:56:08.996Z,19.03
2022-12-13T05:58:38.231Z,21.27
2022-12-13T06:01:07.582Z,18.77
2022-12-13T06:03:34.822Z,19.00
2022-12-13T06:06:04.822Z,20.13
2022-12-13T06:08:32.201Z,20.27
2022-12-13T06:11:11.758Z,21.43
2022-12-13T06:13:42.668Z,20.30
2022-12-13T06:16:23.478Z,19.17
2022-12-13T06:18:59.403Z,21.10
2022-12-13T06:21:40.796Z,19.67
2022-12-13T06:24:15.285Z,20.80
2022-12-13T06:26:42.859Z,21.37
2022-12-13T06:29:12.790Z,20.43
2022-12-13T06:32:02.149Z,19.50
2022-12-13T06:34:33.312Z,20.80
2022-12-13T06:37:03.684Z,19.27
2022-12-13T06:39:32.722Z,21.07
2022-12-13T06:42:02.629Z,20.23
2022-12-13T06:44:29.591Z,21.47
2022-12-13T06:47:11.755Z,21.33
2022-12-13T06:49:42.940Z,20.10
2022-12-13T06:52:13.831Z,20.23
2022-12-13T06:54:45.248Z,21.73
2022-12-13T06:57:13.492Z,21.90
2022-12-13T06:59:41.340Z,21.67
2022-12-13T07:02:25.296Z,21.83
2022-12-13T07:04:55.032Z,20.10
2022-12-13T07:07:25.983Z,21.87
2022-12-13T07:09:53.648Z,21.20
2022-12-13T07:12:21.121Z,21.37
2022-12-13T07:14:48.195Z,21.17
2022-12-13T07:17:33.014Z,20.97
2022-12-13T07:20:04.556Z,20.70
2022-12-13T07:22:34.978Z,21.20
2022-12-13T07:25:05.314Z,22.57
2022-12-13T07:27:32.944Z,22.90
2022-12-13T07:30:00.366Z,23.90
2022-12-13T07:32:27.836Z,34.77
2022-12-13T07:34:54.877Z,24.67
2022-12-13T07:37:30.294Z,23.80
2022-12-13T07:40:04.041Z,24.57
2022-12-13T07:42:32.195Z,29.60
2022-12-13T07:44:59.125Z,24.63
2022-12-13T07:47:29.881Z,23.23
2022-12-13T07:49:57.278Z,22.57
2022-12-13T07:52:24.708Z,24.17
2022-12-13T07:54:51.678Z,24.47
2022-12-13T07:57:20.063Z,23.77
2022-12-13T07:59:47.037Z,23.50
2022-12-13T08:02:14.291Z,23.67
2022-12-13T08:04:43.094Z,24.03
2022-12-13T08:07:10.938Z,24.70
2022-12-13T08:09:38.111Z,25.07
2022-12-13T08:12:05.618Z,24.70
2022-12-13T08:14:34.007Z,23.33
2022-12-13T08:17:01.169Z,23.17
2022-12-13T08:19:28.198Z,24.70
2022-12-13T08:21:58.740Z,39.50
2022-12-13T08:24:31.129Z,25.47
2022-12-13T08:27:02.171Z,24.60
2022-12-13T08:29:34.063Z,26.63
2022-12-13T08:32:05.646Z,25.97
2022-12-13T08:34:32.728Z,25.93
2022-12-13T08:37:01.426Z,28.80
2022-12-13T08:39:30.726Z,25.67
2022-12-13T08:42:14.900Z,26.63
2022-12-13T08:44:45.260Z,27.13
2022-12-13T08:47:24.605Z,28.50
2022-12-13T08:50:01.429Z,25.27
2022-12-13T08:52:32.214Z,26.67
2022-12-13T08:55:09.093Z,25.30
2022-12-13T08:57:36.278Z,24.83
2022-12-13T09:00:05.196Z,25.37
2022-12-13T09:02:38.072Z,27.50
2022-12-13T09:05:10.654Z,27.27
2022-12-13T09:07:41.138Z,26.20
2022-12-13T09:10:26.251Z,26.40
2022-12-13T09:13:01.144Z,28.53
2022-12-13T09:15:33.781Z,26.87
2022-12-13T09:18:05.790Z,30.37
2022-12-13T09:20:40.473Z,24.27
2022-12-13T09:23:13.983Z,24.20
2022-12-13T09:25:54.941Z,28.57
2022-12-13T09:28:22.914Z,26.00
2022-12-13T09:30:52.824Z,25.60
2022-12-13T09:33:29.398Z,23.37
2022-12-13T09:36:01.158Z,22.40
2022-12-13T09:38:28.785Z,24.17
2022-12-13T09:41:03.556Z,23.73
2022-12-13T09:43:49.930Z,23.80
2022-12-13T09:46:34.333Z,25.47
2022-12-13T09:49:13.275Z,27.20
2022-12-13T09:51:55.278Z,23.70
2022-12-13T09:54:36.536Z,23.50
2022-12-13T09:57:04.210Z,25.27
2022-12-13T09:59:35.498Z,24.50
2022-12-13T10:02:15.841Z,24.50
2022-12-13T10:04:45.023Z,26.40
2022-12-13T10:07:18.877Z,26.77
2022-12-13T10:09:47.582Z,26.47
2022-12-13T10:12:18.075Z,28.57
2022-12-13T10:14:54.169Z,26.70
2022-12-13T10:17:25.675Z,25.33
2022-12-13T10:19:54.548Z,26.97
2022-12-13T10:22:25.076Z,29.00
2022-12-13T10:24:54.704Z,26.10
2022-12-13T10:27:29.989Z,27.30
2022-12-13T10:30:08.407Z,30.40
2022-12-13T10:32:55.046Z,30.23
2022-12-13T10:35:36.073Z,30.10
2022-12-13T10:38:31.712Z,29.43
2022-12-13T10:41:00.953Z,30.30
2022-12-13T10:43:30.354Z,30.80
2022-12-13T10:46:05.119Z,29.97
2022-12-13T10:48:39.426Z,30.17
2022-12-13T10:51:13.073Z,28.57
2022-12-13T10:53:47.418Z,31.23
2022-12-13T10:56:23.022Z,32.63
2022-12-13T10:59:15.022Z,33.63
2022-12-13T11:01:44.525Z,32.23
2022-12-13T11:04:27.899Z,33.13
2022-12-13T11:06:59.773Z,33.13
2022-12-13T11:09:38.257Z,32.43
2022-12-13T11:12:16.403Z,29.27
2022-12-13T11:14:55.590Z,29.67
2022-12-13T11:17:26.530Z,29.30
2022-12-13T11:19:57.793Z,28.17
2022-12-13T11:22:29.966Z,28.67
2022-12-13T11:25:02.505Z,27.77
2022-12-13T11:27:49.758Z,28.00
2022-12-13T11:30:24.165Z,27.40
2022-12-13T11:33:26.127Z,25.90
2022-12-13T11:36:12.740Z,26.53
2022-12-13T11:39:00.091Z,26.97
2022-12-13T11:41:34.589Z,24.80
2022-12-13T11:44:13.798Z,24.93
2022-12-13T11:46:45.013Z,25.00
2022-12-13T11:49:17.952Z,25.00
2022-12-13T11:51:53.917Z,25.53
2022-12-13T11:54:35.018Z,25.60
2022-12-13T11:57:16.313Z,22.83
2022-12-13T11:59:53.314Z,22.47
2022-12-13T12:02:38.863Z,23.63
2022-12-13T12:05:18.882Z,23.27
2022-12-13T12:08:31.236Z,23.90
2022-12-13T12:10:50.074Z,23.30
2022-12-13T12:13:27.093Z,24.20
2022-12-13T12:16:11.060Z,25.60
2022-12-13T12:18:38.936Z,22.70
2022-12-13T12:21:37.128Z,24.43
2022-12-13T12:24:28.453Z,24.73
2022-12-13T12:27:22.050Z,24.00
2022-12-13T12:30:07.622Z,21.70
2022-12-13T12:32:47.056Z,23.70
2022-12-13T12:35:46.158Z,24.87
2022-12-13T12:39:05.153Z,24.43
2022-12-13T12:41:52.850Z,23.20
2022-12-13T12:44:41.204Z,24.17
2022-12-13T12:50:42.728Z,22.47
2022-12-13T12:53:39.715Z,24.03
2022-12-13T12:56:31.305Z,24.57
2022-12-13T12:59:15.563Z,29.87
2022-12-13T13:02:07.444Z,23.43
2022-12-13T13:04:43.747Z,23.87
2022-12-13T13:07:23.438Z,25.33
2022-12-13T13:09:54.840Z,23.73
2022-12-13T13:12:29.579Z,23.87
2022-12-13T13:14:57.913Z,22.23
2022-12-13T13:17:48.159Z,22.83
2022-12-13T13:20:23.423Z,22.10
2022-12-13T13:23:10.355Z,23.07
2022-12-13T13:26:07.522Z,24.20
2022-12-13T13:28:27.554Z,24.37
2022-12-13T13:31:08.883Z,23.47
2022-12-13T13:33:48.150Z,24.97
2022-12-13T13:36:47.184Z,24.10
2022-12-13T13:39:19.096Z,24.70
2022-12-13T13:42:17.599Z,24.80
2022-12-13T13:45:18.934Z,22.97
2022-12-13T13:48:19.091Z,23.57
2022-12-13T13:51:30.120Z,24.83
2022-12-13T13:54:59.223Z,23.63
2022-12-13T13:58:21.747Z,23.63
2022-12-13T14:01:44.390Z,26.27
2022-12-13T14:05:09.282Z,23.67
2022-12-13T14:08:20.152Z,22.80
2022-12-13T14:11:17.059Z,25.67
2022-12-13T14:14:50.179Z,27.40
2022-12-13T14:18:24.962Z,26.47
2022-12-13T14:21:08.686Z,23.67
2022-12-13T14:24:00.168Z,24.83
2022-12-13T14:26:55.352Z,25.43
2022-12-13T14:29:31.472Z,26.33
2022-12-13T14:31:59.182Z,26.97
2022-12-13T14:34:28.732Z,27.40
2022-12-13T14:36:59.860Z,26.53
2022-12-13T14:39:31.111Z,27.43
2022-12-13T14:42:02.062Z,24.03
2022-12-13T14:44:33.689Z,26.07
2022-12-13T14:47:04.981Z,27.77
2022-12-13T14:49:40.810Z,26.77
2022-12-13T14:52:26.344Z,28.10
2022-12-13T14:54:59.404Z,27.40
2022-12-13T14:57:50.943Z,26.57
2022-12-13T15:00:25.903Z,27.33
2022-12-13T15:02:56.315Z,25.00
2022-12-13T15:05:31.716Z,27.07
2022-12-13T15:07:59.470Z,23.73
2022-12-13T15:10:48.025Z,25.87
2022-12-13T15:13:29.374Z,26.27
2022-12-13T15:16:01.750Z,25.30
2022-12-13T15:18:37.425Z,25.83
2022-12-13T15:21:21.453Z,27.67
2022-12-13T15:23:50.089Z,26.47
2022-12-13T15:26:28.576Z,25.73
2022-12-13T15:29:00.649Z,25.83
2022-12-13T15:31:32.070Z,25.77
2022-12-13T15:34:34.793Z,26.27
2022-12-13T15:37:05.517Z,25.87
2022-12-13T15:39:38.648Z,24.77
2022-12-13T15:42:19.577Z,26.10
2022-12-13T15:44:54.476Z,25.17
2022-12-13T15:47:28.167Z,24.40
2022-12-13T15:49:58.894Z,25.97
2022-12-13T15:52:35.989Z,26.17
2022-12-13T15:55:28.278Z,25.57
2022-12-13T15:57:58.744Z,24.70
2022-12-13T16:00:31.216Z,24.97
2022-12-13T16:03:09.636Z,26.83
2022-12-13T16:05:46.015Z,27.10
2022-12-13T16:08:28.692Z,25.47
2022-12-13T16:10:58.136Z,24.30
2022-12-13T16:13:29.554Z,24.37
2022-12-13T16:16:09.614Z,25.60
2022-12-13T16:18:51.090Z,25.30
2022-12-13T16:21:18.411Z,25.97
2022-12-13T16:23:48.800Z,26.07
2022-12-13T16:26:23.816Z,26.50
2022-12-13T16:28:52.926Z,26.70
2022-12-13T16:31:26.072Z,25.33
2022-12-13T16:33:53.379Z,25.33
2022-12-13T16:36:20.931Z,26.00
2022-12-13T16:38:48.041Z,26.13
2022-12-13T16:41:16.181Z,27.23
2022-12-13T16:43:55.802Z,23.83
2022-12-13T16:47:15.049Z,25.57
2022-12-13T16:49:21.064Z,25.43
2022-12-13T16:51:49.476Z,26.13
2022-12-13T16:54:18.497Z,25.03
2022-12-13T16:56:45.765Z,26.10
2022-12-13T16:59:16.698Z,26.63
2022-12-13T17:01:45.801Z,30.30
2022-12-13T17:04:19.947Z,27.07
2022-12-13T17:06:48.758Z,26.13
2022-12-13T17:09:16.240Z,30.73
2022-12-13T17:11:43.428Z,30.33
2022-12-13T17:14:10.472Z,29.48
2022-12-13T17:16:38.819Z,26.67
2022-12-13T17:19:05.924Z,26.13
2022-12-13T17:21:33.046Z,25.07
2022-12-13T17:24:02.670Z,23.87
2022-12-13T17:26:30.459Z,30.35
2022-12-13T17:28:57.731Z,24.80
2022-12-13T17:31:28.025Z,25.53
2022-12-13T17:34:00.472Z,26.17
2022-12-13T17:36:27.620Z,27.27
2022-12-13T17:38:54.619Z,27.03
2022-12-13T17:41:21.576Z,27.07
2022-12-13T17:43:48.568Z,26.77
2022-12-13T17:46:18.580Z,28.93
2022-12-13T17:48:45.984Z,27.20
2022-12-13T17:51:14.833Z,27.80
2022-12-13T17:53:43.988Z,27.03
2022-12-13T17:56:15.804Z,28.50
2022-12-13T17:58:43.631Z,27.47
2022-12-13T18:01:12.782Z,26.67
2022-12-13T18:03:40.723Z,25.90
2022-12-13T18:06:09.106Z,26.00
2022-12-13T18:08:39.623Z,27.50
2022-12-13T18:11:31.694Z,26.33
2022-12-13T18:13:56.071Z,26.47
2022-12-13T18:16:30.368Z,25.60
2022-12-13T18:18:59.078Z,26.57
2022-12-13T18:21:27.206Z,26.80
2022-12-13T18:23:56.298Z,26.63
2022-12-13T18:26:24.504Z,32.47
2022-12-13T18:28:52.271Z,26.93
2022-12-13T18:31:22.963Z,27.27
2022-12-13T18:33:52.110Z,27.27
2022-12-13T18:36:22.308Z,26.17
2022-12-13T18:38:49.591Z,27.43
2022-12-13T18:41:21.249Z,25.43
2022-12-13T18:43:53.619Z,26.87
2022-12-13T18:46:20.735Z,27.13
2022-12-13T18:48:47.788Z,27.27
2022-12-13T18:51:15.127Z,27.17
2022-12-13T18:53:42.176Z,28.37
2022-12-13T18:56:18.155Z,30.83
2022-12-13T18:58:48.095Z,27.77
2022-12-13T19:01:16.638Z,27.93
2022-12-13T19:03:45.927Z,26.57
2022-12-13T19:06:16.909Z,26.60
2022-12-13T19:08:47.105Z,24.60
2022-12-13T19:11:14.132Z,27.70
2022-12-13T19:13:41.375Z,26.80
2022-12-13T19:16:16.581Z,24.70
2022-12-13T19:18:44.331Z,26.83
2022-12-13T19:21:15.717Z,26.47
2022-12-13T19:23:42.918Z,24.53
2022-12-13T19:26:13.409Z,25.10
2022-12-13T19:28:42.279Z,24.90
2022-12-13T19:31:13.976Z,25.47
2022-12-13T19:33:42.183Z,25.10
2022-12-13T19:36:11.404Z,27.10
2022-12-13T19:38:39.254Z,25.27
2022-12-13T19:41:09.340Z,26.20
2022-12-13T19:43:37.170Z,25.07
2022-12-13T19:46:05.211Z,24.97
2022-12-13T19:48:37.387Z,25.43
2022-12-13T19:51:07.343Z,24.70
2022-12-13T19:53:35.399Z,23.63
2022-12-13T19:56:06.653Z,25.33
2022-12-13T19:58:33.579Z,23.90
2022-12-13T20:01:02.943Z,26.57
2022-12-13T20:03:33.851Z,24.97
2022-12-13T20:06:02.441Z,25.90
2022-12-13T20:08:30.496Z,25.23
2022-12-13T20:10:58.758Z,24.87
2022-12-13T20:13:27.288Z,24.50
2022-12-13T20:15:54.821Z,25.33
2022-12-13T20:18:22.166Z,24.90
2022-12-13T20:21:11.251Z,28.00
2022-12-13T20:23:38.701Z,27.27
2022-12-13T20:26:08.438Z,26.47
2022-12-13T20:28:35.449Z,25.93
2022-12-13T20:31:07.002Z,25.67
2022-12-13T20:33:35.885Z,26.60
2022-12-13T20:36:25.277Z,26.20
2022-12-13T20:38:53.647Z,24.67
2022-12-13T20:41:20.581Z,25.13
2022-12-13T20:43:52.100Z,26.10
2022-12-13T20:46:19.923Z,26.27
2022-12-13T20:48:49.334Z,24.00
2022-12-13T20:51:21.306Z,24.67
2022-12-13T20:53:50.214Z,23.73
2022-12-13T20:56:20.260Z,24.70
2022-12-13T20:58:47.343Z,24.67
2022-12-13T21:01:17.027Z,26.20
2022-12-13T21:03:45.406Z,23.30
2022-12-13T21:06:13.209Z,25.37
2022-12-13T21:09:02.364Z,24.60
2022-12-13T21:11:32.951Z,23.83
2022-12-13T21:14:07.480Z,23.27
2022-12-13T21:16:40.778Z,24.77
2022-12-13T21:19:10.436Z,24.70
2022-12-13T21:21:39.114Z,25.77
2022-12-13T21:24:08.847Z,25.70
2022-12-13T21:26:36.644Z,25.60
2022-12-13T21:29:06.856Z,25.20
2022-12-13T21:31:35.734Z,24.40
2022-12-13T21:34:05.231Z,24.00
2022-12-13T21:36:34.842Z,25.17
2022-12-13T21:39:06.464Z,25.67
2022-12-13T21:41:34.804Z,23.83
2022-12-13T21:44:01.801Z,24.07
2022-12-13T21:46:47.803Z,22.97
2022-12-13T21:49:17.454Z,25.87
2022-12-13T21:51:47.898Z,23.80
2022-12-13T21:54:15.784Z,22.63
2022-12-13T21:57:02.554Z,23.60
2022-12-13T21:59:29.583Z,23.03
2022-12-13T22:02:11.941Z,23.03
2022-12-13T22:04:42.024Z,24.37
2022-12-13T22:07:11.265Z,24.03
2022-12-13T22:09:39.159Z,23.23
2022-12-13T22:12:10.963Z,24.23
2022-12-13T22:14:38.014Z,23.97
2022-12-13T22:17:05.023Z,24.10
2022-12-13T22:19:32.030Z,22.30
2022-12-13T22:21:59.085Z,22.67
2022-12-13T22:24:26.062Z,22.63
2022-12-13T22:26:53.013Z,22.53
2022-12-13T22:29:23.710Z,21.33
2022-12-13T22:31:50.713Z,20.83
2022-12-13T22:34:18.009Z,24.93
2022-12-13T22:36:44.989Z,24.00
2022-12-13T22:39:16.719Z,23.67
2022-12-13T22:41:44.255Z,22.30
2022-12-13T22:44:12.026Z,21.90
2022-12-13T22:46:40.641Z,21.07
2022-12-13T22:49:09.786Z,21.63
2022-12-13T22:51:37.707Z,20.83
2022-12-13T22:54:05.575Z,22.30
2022-12-13T22:56:36.231Z,21.90
2022-12-13T22:59:07.069Z,21.27
2022-12-13T23:01:37.535Z,19.87
2022-12-13T23:04:07.486Z,22.07
2022-12-13T23:06:37.534Z,20.63
2022-12-13T23:09:10.166Z,21.47
2022-12-13T23:11:55.701Z,20.77
2022-12-13T23:14:30.474Z,20.93
2022-12-13T23:16:57.866Z,20.87
2022-12-13T23:19:48.961Z,19.60
2022-12-13T23:22:14.397Z,18.67
2022-12-13T23:24:41.343Z,20.27
2022-12-13T23:27:08.324Z,20.97
2022-12-13T23:29:35.467Z,21.23
2022-12-13T23:32:02.518Z,19.73
2022-12-13T23:34:31.078Z,21.47
2022-12-13T23:36:58.061Z,22.37
2022-12-13T23:39:25.183Z,20.43
2022-12-13T23:41:52.205Z,17.33
2022-12-13T23:44:19.371Z,19.97
2022-12-13T23:46:48.890Z,20.60
2022-12-13T23:49:16.629Z,19.83
2022-12-13T23:51:44.966Z,19.67
2022-12-13T23:54:16.255Z,20.27
2022-12-13T23:56:43.419Z,21.60
2022-12-13T23:59:10.493Z,20.97
